Sunrise Beach, Washington
Current Conditions -  °F | °C
As of 1:53 AM on Tuesday 21 Oct 2014 (Local Time) from KTIW Reporting Station
Overcast Overcast  
Wind Chill: 54°   Ceiling: 6000
Heat Index: 54°   Visibility: 10mi
Dew Point: 50°   Wind: 6mph
Humidity: 86%   Direction: 180°S
Pressure: 29.82"   Gusts: NA
Location:  47.2986°N, 122.616°W
Report Text: KTIW 210853Z AUTO 18005KT 10SM SCT045 OVC060 12/10 A2982 RMK AO2 SLP098 T01220100 53006
Loading
Personal Weather Stations






























Interactive Weather Map
Tropical Storm Tracking
New forecast layout! Learn more

10-Day Weather Forecast

Advertisements
Track Severe Weather on mobile